sensor_id;sensor_type;location;lat;lon;timestamp;pressure;altitude;pressure_sealevel;temperature;humidity
24825;BME280;12910;57.690;11.974;2022-09-20T00:02:16;100640.31;;;10.84;100.00
24825;BME280;12910;57.690;11.974;2022-09-20T00:04:41;100633.47;;;10.83;100.00
24825;BME280;12910;57.690;11.974;2022-09-20T00:07:07;100635.13;;;10.80;100.00
24825;BME280;12910;57.690;11.974;2022-09-20T00:09:32;100633.53;;;10.88;100.00
24825;BME280;12910;57.690;11.974;2022-09-20T00:11:58;100632.59;;;10.81;100.00
24825;BME280;12910;57.690;11.974;2022-09-20T00:14:24;100635.06;;;10.75;100.00
24825;BME280;12910;57.690;11.974;2022-09-20T00:16:49;100633.38;;;10.77;100.00
24825;BME280;12910;57.690;11.974;2022-09-20T00:19:20;100653.13;;;10.83;100.00
24825;BME280;12910;57.690;11.974;2022-09-20T00:21:46;100655.63;;;10.78;100.00
24825;BME280;12910;57.690;11.974;2022-09-20T00:24:12;100653.94;;;10.80;100.00
24825;BME280;12910;57.690;11.974;2022-09-20T00:26:37;100647.03;;;10.76;100.00
24825;BME280;12910;57.690;11.974;2022-09-20T00:29:04;100654.78;;;10.81;100.00
24825;BME280;12910;57.690;11.974;2022-09-20T00:31:29;100647.03;;;10.76;100.00
24825;BME280;12910;57.690;11.974;2022-09-20T00:33:56;100662.44;;;10.78;100.00
24825;BME280;12910;57.690;11.974;2022-09-20T00:36:40;100659.06;;;10.80;100.00
24825;BME280;12910;57.690;11.974;2022-09-20T00:39:05;100663.31;;;10.78;100.00
24825;BME280;12910;57.690;11.974;2022-09-20T00:41:31;100659.00;;;10.77;100.00
24825;BME280;12910;57.690;11.974;2022-09-20T00:43:58;100665.94;;;10.81;100.00
24825;BME280;12910;57.690;11.974;2022-09-20T00:46:39;100664.09;;;10.74;100.00
24825;BME280;12910;57.690;11.974;2022-09-20T00:49:18;100664.09;;;10.74;100.00
24825;BME280;12910;57.690;11.974;2022-09-20T00:51:46;100657.13;;;10.67;100.00
24825;BME280;12910;57.690;11.974;2022-09-20T00:54:15;100665.72;;;10.69;100.00
24825;BME280;12910;57.690;11.974;2022-09-20T00:56:42;100667.53;;;10.76;100.00
24825;BME280;12910;57.690;11.974;2022-09-20T01:01:42;100663.91;;;10.62;100.00
24825;BME280;12910;57.690;11.974;2022-09-20T01:04:08;100676.03;;;10.72;100.00
24825;BME280;12910;57.690;11.974;2022-09-20T01:06:34;100677.75;;;10.73;100.00
24825;BME280;12910;57.690;11.974;2022-09-20T01:09:02;100688.72;;;10.66;100.00
24825;BME280;12910;57.690;11.974;2022-09-20T01:11:30;100680.13;;;10.62;100.00
24825;BME280;12910;57.690;11.974;2022-09-20T01:13:55;100677.44;;;10.54;100.00
24825;BME280;12910;57.690;11.974;2022-09-20T01:16:22;100679.16;;;10.55;100.00
24825;BME280;12910;57.690;11.974;2022-09-20T01:18:49;100668.81;;;10.49;100.00
24825;BME280;12910;57.690;11.974;2022-09-20T01:21:16;100679.16;;;10.55;100.00
24825;BME280;12910;57.690;11.974;2022-09-20T01:24:05;100682.38;;;10.43;100.00
24825;BME280;12910;57.690;11.974;2022-09-20T01:30:08;100691.59;;;10.35;100.00
24825;BME280;12910;57.690;11.974;2022-09-20T01:32:42;100671.78;;;10.26;100.00
24825;BME280;12910;57.690;11.974;2022-09-20T01:35:10;100682.09;;;10.29;100.00
24825;BME280;12910;57.690;11.974;2022-09-20T01:40:26;100689.88;;;10.36;100.00
24825;BME280;12910;57.690;11.974;2022-09-20T01:43:13;100695.72;;;10.27;100.00
24825;BME280;12910;57.690;11.974;2022-09-20T01:45:46;100694.00;;;10.26;100.00
24825;BME280;12910;57.690;11.974;2022-09-20T01:48:33;100700.00;;;10.28;100.00
24825;BME280;12910;57.690;11.974;2022-09-20T01:56:57;100704.16;;;10.21;100.00
24825;BME280;12910;57.690;11.974;2022-09-20T02:00:29;100704.78;;;10.09;100.00
24825;BME280;12910;57.690;11.974;2022-09-20T02:05:57;100712.34;;;10.03;100.00
24825;BME280;12910;57.690;11.974;2022-09-20T02:11:35;100724.41;;;10.09;100.00
24825;BME280;12910;57.690;11.974;2022-09-20T02:19:25;100730.50;;;10.16;100.00
24825;BME280;12910;57.690;11.974;2022-09-20T02:22:15;100732.16;;;10.13;100.00
24825;BME280;12910;57.690;11.974;2022-09-20T02:27:55;100732.00;;;10.04;100.00
24825;BME280;12910;57.690;11.974;2022-09-20T02:38:40;100733.41;;;9.90;100.00
24825;BME280;12910;57.690;11.974;2022-09-20T02:43:43;100733.31;;;9.85;100.00
24825;BME280;12910;57.690;11.974;2022-09-20T02:49:34;100746.91;;;9.82;100.00
24825;BME280;12910;57.690;11.974;2022-09-20T02:52:12;100746.91;;;9.82;100.00
24825;BME280;12910;57.690;11.974;2022-09-20T02:57:28;100757.94;;;9.80;100.00
24825;BME280;12910;57.690;11.974;2022-09-20T03:00:12;100767.38;;;9.82;100.00
24825;BME280;12910;57.690;11.974;2022-09-20T03:02:47;100757.09;;;9.79;100.00
24825;BME280;12910;57.690;11.974;2022-09-20T03:16:43;100773.94;;;9.70;100.00
24825;BME280;12910;57.690;11.974;2022-09-20T03:22:50;100783.34;;;9.71;100.00
24825;BME280;12910;57.690;11.974;2022-09-20T03:25:30;100772.97;;;9.64;100.00
24825;BME280;12910;57.690;11.974;2022-09-20T03:28:14;100777.25;;;9.65;100.00
24825;BME280;12910;57.690;11.974;2022-09-20T03:31:12;100778.09;;;9.64;100.00
24825;BME280;12910;57.690;11.974;2022-09-20T03:42:25;100783.13;;;9.61;100.00
24825;BME280;12910;57.690;11.974;2022-09-20T04:01:22;100799.66;;;9.38;100.00
24825;BME280;12910;57.690;11.974;2022-09-20T04:04:12;100811.59;;;9.39;100.00
24825;BME280;12910;57.690;11.974;2022-09-20T04:07:00;100808.22;;;9.40;100.00
24825;BME280;12910;57.690;11.974;2022-09-20T04:18:27;100831.56;;;9.17;100.00
24825;BME280;12910;57.690;11.974;2022-09-20T04:21:18;100828.06;;;9.13;100.00
24825;BME280;12910;57.690;11.974;2022-09-20T04:24:03;100830.78;;;9.21;100.00
24825;BME280;12910;57.690;11.974;2022-09-20T04:26:32;100839.28;;;9.20;100.00
24825;BME280;12910;57.690;11.974;2022-09-20T04:29:10;100841.69;;;9.14;100.00
24825;BME280;12910;57.690;11.974;2022-09-20T04:34:31;100848.53;;;9.15;100.00
24825;BME280;12910;57.690;11.974;2022-09-20T04:37:28;100832.97;;;9.06;100.00
24825;BME280;12910;57.690;11.974;2022-09-20T04:40:22;100845.97;;;9.15;100.00
24825;BME280;12910;57.690;11.974;2022-09-20T04:43:15;100851.00;;;9.12;100.00
24825;BME280;12910;57.690;11.974;2022-09-20T04:59:08;100867.13;;;9.08;100.00
24825;BME280;12910;57.690;11.974;2022-09-20T05:01:42;100869.78;;;9.12;100.00
24825;BME280;12910;57.690;11.974;2022-09-20T05:15:45;100888.19;;;8.99;100.00
24825;BME280;12910;57.690;11.974;2022-09-20T05:19:01;100889.94;;;9.01;100.00
24825;BME280;12910;57.690;11.974;2022-09-20T05:21:49;100892.44;;;8.98;100.00
24825;BME280;12910;57.690;11.974;2022-09-20T05:29:51;100874.16;;;8.84;100.00
24825;BME280;12910;57.690;11.974;2022-09-20T05:35:28;100909.41;;;8.96;100.00
24825;BME280;12910;57.690;11.974;2022-09-20T05:38:21;100909.47;;;8.99;100.00
24825;BME280;12910;57.690;11.974;2022-09-20T05:49:40;100911.91;;;8.95;100.00
24825;BME280;12910;57.690;11.974;2022-09-20T05:57:34;100928.47;;;9.08;100.00
24825;BME280;12910;57.690;11.974;2022-09-20T06:00:09;100918.88;;;9.00;100.00
24825;BME280;12910;57.690;11.974;2022-09-20T06:05:39;100930.81;;;9.00;100.00
24825;BME280;12910;57.690;11.974;2022-09-20T06:16:52;100936.97;;;9.07;100.00
24825;BME280;12910;57.690;11.974;2022-09-20T06:19:38;100944.53;;;9.03;100.00
24825;BME280;12910;57.690;11.974;2022-09-20T06:24:57;100957.34;;;9.03;100.00
24825;BME280;12910;57.690;11.974;2022-09-20T06:27:29;100957.47;;;9.08;100.00
24825;BME280;12910;57.690;11.974;2022-09-20T06:30:00;100966.06;;;9.12;100.00
24825;BME280;12910;57.690;11.974;2022-09-20T06:32:26;100963.63;;;9.15;100.00
24825;BME280;12910;57.690;11.974;2022-09-20T06:34:52;100954.91;;;9.08;100.00
24825;BME280;12910;57.690;11.974;2022-09-20T06:37:41;100969.72;;;9.20;100.00
24825;BME280;12910;57.690;11.974;2022-09-20T06:40:37;100972.25;;;9.20;100.00
24825;BME280;12910;57.690;11.974;2022-09-20T06:43:22;100970.59;;;9.20;100.00
24825;BME280;12910;57.690;11.974;2022-09-20T06:45:48;100981.81;;;9.26;100.00
24825;BME280;12910;57.690;11.974;2022-09-20T06:48:13;100973.09;;;9.19;100.00
24825;BME280;12910;57.690;11.974;2022-09-20T06:50:40;100968.75;;;9.16;100.00
24825;BME280;12910;57.690;11.974;2022-09-20T06:53:16;100987.00;;;9.29;100.00
24825;BME280;12910;57.690;11.974;2022-09-20T06:55:42;100980.16;;;9.28;100.00
24825;BME280;12910;57.690;11.974;2022-09-20T06:58:09;100994.72;;;9.30;100.00
24825;BME280;12910;57.690;11.974;2022-09-20T07:00:35;100980.97;;;9.27;100.00
24825;BME280;12910;57.690;11.974;2022-09-20T07:03:01;101003.16;;;9.26;100.00
24825;BME280;12910;57.690;11.974;2022-09-20T07:05:26;101005.97;;;9.35;100.00
24825;BME280;12910;57.690;11.974;2022-09-20T07:07:58;101001.75;;;9.38;100.00
24825;BME280;12910;57.690;11.974;2022-09-20T07:10:25;100996.78;;;9.44;100.00
24825;BME280;12910;57.690;11.974;2022-09-20T07:12:58;101012.38;;;9.51;100.00
24825;BME280;12910;57.690;11.974;2022-09-20T07:15:29;101014.19;;;9.57;100.00
24825;BME280;12910;57.690;11.974;2022-09-20T07:17:55;101002.94;;;9.50;100.00
24825;BME280;12910;57.690;11.974;2022-09-20T07:20:20;101011.72;;;9.60;100.00
24825;BME280;12910;57.690;11.974;2022-09-20T07:22:46;101018.66;;;9.64;100.00
24825;BME280;12910;57.690;11.974;2022-09-20T07:25:12;101010.09;;;9.62;100.00
24825;BME280;12910;57.690;11.974;2022-09-20T07:27:37;101023.09;;;9.70;100.00
24825;BME280;12910;57.690;11.974;2022-09-20T07:30:05;101016.13;;;9.64;100.00
24825;BME280;12910;57.690;11.974;2022-09-20T07:32:30;101024.09;;;9.77;100.00
24825;BME280;12910;57.690;11.974;2022-09-20T07:34:56;101016.41;;;9.77;100.00
24825;BME280;12910;57.690;11.974;2022-09-20T07:37:21;101016.47;;;9.78;100.00
24825;BME280;12910;57.690;11.974;2022-09-20T07:39:47;101027.75;;;9.85;100.00
24825;BME280;12910;57.690;11.974;2022-09-20T07:42:13;101030.47;;;9.93;100.00
24825;BME280;12910;57.690;11.974;2022-09-20T07:44:38;101028.03;;;9.97;100.00
24825;BME280;12910;57.690;11.974;2022-09-20T07:47:08;101038.38;;;10.02;100.00
24825;BME280;12910;57.690;11.974;2022-09-20T07:49:34;101031.50;;;10.00;100.00
24825;BME280;12910;57.690;11.974;2022-09-20T07:52:00;101022.19;;;10.03;100.00
24825;BME280;12910;57.690;11.974;2022-09-20T07:54:26;101037.78;;;10.11;100.00
24825;BME280;12910;57.690;11.974;2022-09-20T07:56:52;101028.50;;;10.16;100.00
24825;BME280;12910;57.690;11.974;2022-09-20T07:59:18;101033.59;;;10.14;100.00
24825;BME280;12910;57.690;11.974;2022-09-20T08:01:44;101031.16;;;10.21;100.00
24825;BME280;12910;57.690;11.974;2022-09-20T08:04:10;101044.09;;;10.25;100.00
24825;BME280;12910;57.690;11.974;2022-09-20T08:06:37;101032.09;;;10.24;100.00
24825;BME280;12910;57.690;11.974;2022-09-20T08:09:04;101038.13;;;10.26;100.00
24825;BME280;12910;57.690;11.974;2022-09-20T08:11:29;101013.13;;;10.16;100.00
24825;BME280;12910;57.690;11.974;2022-09-20T08:13:57;101045.19;;;10.35;100.00
24825;BME280;12910;57.690;11.974;2022-09-20T08:16:25;101047.00;;;10.39;100.00
24825;BME280;12910;57.690;11.974;2022-09-20T08:18:56;101054.81;;;10.44;100.00
24825;BME280;12910;57.690;11.974;2022-09-20T08:21:24;101053.22;;;10.49;100.00
24825;BME280;12910;57.690;11.974;2022-09-20T08:23:50;101050.66;;;10.49;100.00
24825;BME280;12910;57.690;11.974;2022-09-20T08:26:18;101063.56;;;10.52;100.00
24825;BME280;12910;57.690;11.974;2022-09-20T08:28:45;101049.78;;;10.49;100.00
24825;BME280;12910;57.690;11.974;2022-09-20T08:31:13;101061.09;;;10.57;100.00
24825;BME280;12910;57.690;11.974;2022-09-20T08:33:39;101067.16;;;10.60;100.00
24825;BME280;12910;57.690;11.974;2022-09-20T08:36:16;101061.25;;;10.63;100.00
24825;BME280;12910;57.690;11.974;2022-09-20T08:38:42;101060.53;;;10.69;100.00
24825;BME280;12910;57.690;11.974;2022-09-20T08:41:24;101052.72;;;10.64;100.00
24825;BME280;12910;57.690;11.974;2022-09-20T08:46:27;101067.63;;;10.82;100.00
24825;BME280;12910;57.690;11.974;2022-09-20T08:48:54;101079.63;;;10.83;100.00
24825;BME280;12910;57.690;11.974;2022-09-20T08:51:22;101063.41;;;10.83;100.00
24825;BME280;12910;57.690;11.974;2022-09-20T08:53:53;101072.84;;;10.85;100.00
24825;BME280;12910;57.690;11.974;2022-09-20T08:56:20;101071.25;;;10.90;100.00
24825;BME280;12910;57.690;11.974;2022-09-20T08:58:46;101062.66;;;10.88;100.00
24825;BME280;12910;57.690;11.974;2022-09-20T09:01:19;101074.78;;;10.96;100.00
24825;BME280;12910;57.690;11.974;2022-09-20T09:03:45;101056.66;;;10.88;100.00
24825;BME280;12910;57.690;11.974;2022-09-20T09:06:12;101064.50;;;10.94;100.00
24825;BME280;12910;57.690;11.974;2022-09-20T09:08:42;101068.94;;;11.03;100.00
24825;BME280;12910;57.690;11.974;2022-09-20T09:11:13;101081.88;;;11.07;100.00
24825;BME280;12910;57.690;11.974;2022-09-20T09:14:05;101082.81;;;11.11;100.00
24825;BME280;12910;57.690;11.974;2022-09-20T09:16:54;101076.72;;;11.06;100.00
24825;BME280;12910;57.690;11.974;2022-09-20T09:19:53;101091.34;;;11.10;100.00
24825;BME280;12910;57.690;11.974;2022-09-20T09:22:40;101084.44;;;11.07;100.00
24825;BME280;12910;57.690;11.974;2022-09-20T09:28:00;101096.81;;;11.26;100.00
24825;BME280;12910;57.690;11.974;2022-09-20T09:35:50;101098.63;;;11.30;100.00
24825;BME280;12910;57.690;11.974;2022-09-20T09:38:19;101098.63;;;11.31;100.00
24825;BME280;12910;57.690;11.974;2022-09-20T09:43:39;101100.75;;;11.51;100.00
24825;BME280;12910;57.690;11.974;2022-09-20T09:48:43;101092.16;;;11.50;100.00
24825;BME280;12910;57.690;11.974;2022-09-20T09:51:18;101095.78;;;11.59;100.00
24825;BME280;12910;57.690;11.974;2022-09-20T09:53:46;101100.91;;;11.59;100.00
24825;BME280;12910;57.690;11.974;2022-09-20T10:04:53;101097.69;;;11.71;100.00
24825;BME280;12910;57.690;11.974;2022-09-20T10:12:53;101101.31;;;11.80;100.00
24825;BME280;12910;57.690;11.974;2022-09-20T10:18:20;101106.69;;;11.93;100.00
24825;BME280;12910;57.690;11.974;2022-09-20T10:20:55;101117.97;;;12.01;100.00
24825;BME280;12910;57.690;11.974;2022-09-20T10:26:06;101118.91;;;12.05;100.00
24825;BME280;12910;57.690;11.974;2022-09-20T10:29:04;101123.19;;;12.04;100.00
24825;BME280;12910;57.690;11.974;2022-09-20T10:31:40;101124.09;;;12.06;100.00
24825;BME280;12910;57.690;11.974;2022-09-20T10:42:49;101136.28;;;12.18;100.00
24825;BME280;12910;57.690;11.974;2022-09-20T10:48:11;101128.72;;;12.26;100.00
24825;BME280;12910;57.690;11.974;2022-09-20T10:51:13;101139.03;;;12.27;100.00
24825;BME280;12910;57.690;11.974;2022-09-20T10:56:46;101132.28;;;12.34;100.00
24825;BME280;12910;57.690;11.974;2022-09-20T10:59:40;101139.25;;;12.41;100.00
24825;BME280;12910;57.690;11.974;2022-09-20T11:08:33;101134.13;;;12.43;100.00
24825;BME280;12910;57.690;11.974;2022-09-20T11:13:07;101153.19;;;12.56;100.00
24825;BME280;12910;57.690;11.974;2022-09-20T11:15:42;101151.50;;;12.56;100.00
24825;BME280;12910;57.690;11.974;2022-09-20T11:21:29;101165.44;;;12.69;100.00
24825;BME280;12910;57.690;11.974;2022-09-20T11:27:27;101164.66;;;12.73;100.00
24825;BME280;12910;57.690;11.974;2022-09-20T11:30:02;101156.94;;;12.73;100.00
24825;BME280;12910;57.690;11.974;2022-09-20T11:32:40;101165.56;;;12.78;100.00
24825;BME280;12910;57.690;11.974;2022-09-20T11:37:40;101152.00;;;12.89;100.00
24825;BME280;12910;57.690;11.974;2022-09-20T11:42:42;101152.88;;;12.89;100.00
24825;BME280;12910;57.690;11.974;2022-09-20T11:45:11;101153.75;;;12.91;100.00
24825;BME280;12910;57.690;11.974;2022-09-20T11:47:41;101155.47;;;12.91;100.00
24825;BME280;12910;57.690;11.974;2022-09-20T11:56:17;101167.84;;;13.17;100.00
24825;BME280;12910;57.690;11.974;2022-09-20T11:58:49;101161.81;;;13.13;100.00
24825;BME280;12910;57.690;11.974;2022-09-20T12:01:43;101172.09;;;13.13;100.00
24825;BME280;12910;57.690;11.974;2022-09-20T12:04:10;101178.09;;;13.14;100.00
24825;BME280;12910;57.690;11.974;2022-09-20T12:06:39;101164.38;;;13.15;100.00
24825;BME280;12910;57.690;11.974;2022-09-20T12:09:28;101167.09;;;13.22;100.00
24825;BME280;12910;57.690;11.974;2022-09-20T12:11:55;101177.44;;;13.29;100.00
24825;BME280;12910;57.690;11.974;2022-09-20T12:14:27;101162.06;;;13.30;100.00
24825;BME280;12910;57.690;11.974;2022-09-20T12:16:53;101168.25;;;13.42;100.00
24825;BME280;12910;57.690;11.974;2022-09-20T12:24:29;101173.31;;;13.38;100.00
24825;BME280;12910;57.690;11.974;2022-09-20T12:30:04;101187.03;;;13.37;100.00
24825;BME280;12910;57.690;11.974;2022-09-20T12:32:44;101176.69;;;13.34;100.00
24825;BME280;12910;57.690;11.974;2022-09-20T12:38:25;101187.22;;;13.50;100.00
24825;BME280;12910;57.690;11.974;2022-09-20T12:41:17;101191.47;;;13.46;100.00
24825;BME280;12910;57.690;11.974;2022-09-20T12:43:56;101174.19;;;13.39;100.00
24825;BME280;12910;57.690;11.974;2022-09-20T12:46:31;101172.56;;;13.44;100.00
24825;BME280;12910;57.690;11.974;2022-09-20T12:55:37;101192.53;;;13.62;100.00
24825;BME280;12910;57.690;11.974;2022-09-20T13:00:40;101198.63;;;13.69;100.00
24825;BME280;12910;57.690;11.974;2022-09-20T13:19:02;101201.09;;;13.61;100.00
24825;BME280;12910;57.690;11.974;2022-09-20T13:21:36;101194.97;;;13.53;100.00
24825;BME280;12910;57.690;11.974;2022-09-20T13:24:02;101189.00;;;13.54;100.00
24825;BME280;12910;57.690;11.974;2022-09-20T13:26:38;101196.03;;;13.67;100.00
24825;BME280;12910;57.690;11.974;2022-09-20T13:29:21;101185.75;;;13.69;100.00
24825;BME280;12910;57.690;11.974;2022-09-20T13:31:47;101187.59;;;13.78;100.00
24825;BME280;12910;57.690;11.974;2022-09-20T13:34:23;101204.78;;;13.80;100.00
24825;BME280;12910;57.690;11.974;2022-09-20T13:36:53;101191.06;;;13.81;100.00
24825;BME280;12910;57.690;11.974;2022-09-20T13:39:29;101205.69;;;13.84;100.00
24825;BME280;12910;57.690;11.974;2022-09-20T13:42:01;101199.63;;;13.79;100.00
24825;BME280;12910;57.690;11.974;2022-09-20T13:44:30;101198.69;;;13.72;100.00
24825;BME280;12910;57.690;11.974;2022-09-20T13:46:58;101196.09;;;13.74;100.00
24825;BME280;12910;57.690;11.974;2022-09-20T13:49:23;101182.22;;;13.62;100.00
24825;BME280;12910;57.690;11.974;2022-09-20T13:51:49;101204.78;;;13.79;100.00
24825;BME280;12910;57.690;11.974;2022-09-20T13:54:29;101205.66;;;13.82;100.00
24825;BME280;12910;57.690;11.974;2022-09-20T13:57:11;101208.22;;;13.81;100.00
24825;BME280;12910;57.690;11.974;2022-09-20T13:59:42;101196.22;;;13.83;100.00
24825;BME280;12910;57.690;11.974;2022-09-20T14:02:22;101208.31;;;13.87;100.00
24825;BME280;12910;57.690;11.974;2022-09-20T14:04:50;101213.47;;;13.87;100.00
24825;BME280;12910;57.690;11.974;2022-09-20T14:07:18;101203.94;;;13.83;100.00
24825;BME280;12910;57.690;11.974;2022-09-20T14:09:44;101202.25;;;13.83;100.00
24825;BME280;12910;57.690;11.974;2022-09-20T14:12:11;101204.94;;;13.93;100.00
24825;BME280;12910;57.690;11.974;2022-09-20T14:14:38;101203.16;;;13.90;100.00
24825;BME280;12910;57.690;11.974;2022-09-20T14:17:06;101201.47;;;13.92;100.00
24825;BME280;12910;57.690;11.974;2022-09-20T14:19:38;101203.16;;;13.90;100.00
24825;BME280;12910;57.690;11.974;2022-09-20T14:22:05;101204.00;;;13.86;100.00
24825;BME280;12910;57.690;11.974;2022-09-20T14:24:35;101207.47;;;13.91;100.00
24825;BME280;12910;57.690;11.974;2022-09-20T14:27:19;101224.59;;;13.86;100.00
24825;BME280;12910;57.690;11.974;2022-09-20T14:29:49;101209.16;;;13.86;100.00
24825;BME280;12910;57.690;11.974;2022-09-20T14:34:44;101220.34;;;13.88;100.00
24825;BME280;12910;57.690;11.974;2022-09-20T14:37:15;101209.13;;;13.84;100.00
24825;BME280;12910;57.690;11.974;2022-09-20T14:39:47;101213.47;;;13.87;100.00
24825;BME280;12910;57.690;11.974;2022-09-20T14:42:22;101210.84;;;13.84;100.00
24825;BME280;12910;57.690;11.974;2022-09-20T14:44:50;101209.94;;;13.80;100.00
24825;BME280;12910;57.690;11.974;2022-09-20T14:47:24;101220.38;;;13.91;100.00
24825;BME280;12910;57.690;11.974;2022-09-20T14:49:49;101204.78;;;13.80;100.00
24825;BME280;12910;57.690;11.974;2022-09-20T14:57:35;101218.50;;;13.81;100.00
24825;BME280;12910;57.690;11.974;2022-09-20T15:00:12;101224.66;;;13.89;100.00
24825;BME280;12910;57.690;11.974;2022-09-20T15:02:41;101221.13;;;13.82;100.00
24825;BME280;12910;57.690;11.974;2022-09-20T15:05:16;101233.19;;;13.86;100.00
24825;BME280;12910;57.690;11.974;2022-09-20T15:07:42;101230.59;;;13.85;100.00
24825;BME280;12910;57.690;11.974;2022-09-20T15:10:11;101232.38;;;13.89;100.00
24825;BME280;12910;57.690;11.974;2022-09-20T15:12:37;101239.22;;;13.87;100.00
24825;BME280;12910;57.690;11.974;2022-09-20T15:15:02;101227.13;;;13.80;100.00
24825;BME280;12910;57.690;11.974;2022-09-20T15:17:28;101225.38;;;13.79;100.00
24825;BME280;12910;57.690;11.974;2022-09-20T15:19:53;101233.19;;;13.83;100.00
24825;BME280;12910;57.690;11.974;2022-09-20T15:22:18;101244.38;;;13.87;100.00
24825;BME280;12910;57.690;11.974;2022-09-20T15:24:44;101236.59;;;13.82;100.00
24825;BME280;12910;57.690;11.974;2022-09-20T15:27:13;101230.56;;;13.82;100.00
24825;BME280;12910;57.690;11.974;2022-09-20T15:29:39;101229.66;;;13.78;100.00
24825;BME280;12910;57.690;11.974;2022-09-20T15:32:05;101239.19;;;13.84;100.00
24825;BME280;12910;57.690;11.974;2022-09-20T15:34:31;101227.03;;;13.74;100.00
24825;BME280;12910;57.690;11.974;2022-09-20T15:36:56;101240.00;;;13.80;100.00
24825;BME280;12910;57.690;11.974;2022-09-20T15:39:21;101242.59;;;13.81;100.00
24825;BME280;12910;57.690;11.974;2022-09-20T15:41:47;101246.84;;;13.79;100.00
24825;BME280;12910;57.690;11.974;2022-09-20T15:44:14;101249.44;;;13.81;100.00
24825;BME280;12910;57.690;11.974;2022-09-20T15:46:41;101250.28;;;13.78;100.00
24825;BME280;12910;57.690;11.974;2022-09-20T15:49:06;101257.16;;;13.78;100.00
24825;BME280;12910;57.690;11.974;2022-09-20T15:51:36;101248.47;;;13.73;100.00
24825;BME280;12910;57.690;11.974;2022-09-20T15:54:03;101258.00;;;13.77;100.00
24825;BME280;12910;57.690;11.974;2022-09-20T15:56:35;101260.56;;;13.75;100.00
24825;BME280;12910;57.690;11.974;2022-09-20T15:59:06;101264.00;;;13.77;100.00
24825;BME280;12910;57.690;11.974;2022-09-20T16:01:34;101264.84;;;13.76;100.00
24825;BME280;12910;57.690;11.974;2022-09-20T16:04:10;101265.72;;;13.75;100.00
24825;BME280;12910;57.690;11.974;2022-09-20T16:06:37;101273.44;;;13.75;100.00
24825;BME280;12910;57.690;11.974;2022-09-20T16:09:03;101265.53;;;13.63;100.00
24825;BME280;12910;57.690;11.974;2022-09-20T16:11:29;101279.13;;;13.52;100.00
24825;BME280;12910;57.690;11.974;2022-09-20T16:13:56;101273.97;;;13.51;100.00
24825;BME280;12910;57.690;11.974;2022-09-20T16:16:23;101281.63;;;13.48;100.00
24825;BME280;12910;57.690;11.974;2022-09-20T16:18:49;101272.69;;;13.27;100.00
24825;BME280;12910;57.690;11.974;2022-09-20T16:21:35;101281.19;;;13.23;100.00
24825;BME280;12910;57.690;11.974;2022-09-20T16:24:00;101250.78;;;12.99;100.00
24825;BME280;12910;57.690;11.974;2022-09-20T16:26:27;101293.00;;;13.08;100.00
24825;BME280;12910;57.690;11.974;2022-09-20T16:28:53;101261.00;;;12.92;100.00
24825;BME280;12910;57.690;11.974;2022-09-20T16:31:34;101284.31;;;13.02;100.00
24825;BME280;12910;57.690;11.974;2022-09-20T16:34:01;101295.50;;;13.04;100.00
24825;BME280;12910;57.690;11.974;2022-09-20T16:36:28;101277.31;;;12.93;100.00
24825;BME280;12910;57.690;11.974;2022-09-20T16:38:53;101273.75;;;12.86;100.00
24825;BME280;12910;57.690;11.974;2022-09-20T16:41:24;101294.41;;;12.91;100.00
24825;BME280;12910;57.690;11.974;2022-09-20T16:43:50;101294.22;;;12.80;100.00
24825;BME280;12910;57.690;11.974;2022-09-20T16:46:20;101293.38;;;12.81;100.00
24825;BME280;12910;57.690;11.974;2022-09-20T16:48:47;101302.81;;;12.81;100.00
24825;BME280;12910;57.690;11.974;2022-09-20T16:51:16;101299.16;;;12.68;100.00
24825;BME280;12910;57.690;11.974;2022-09-20T16:53:42;101308.69;;;12.73;100.00
24825;BME280;12910;57.690;11.974;2022-09-20T16:56:16;101310.28;;;12.68;100.00
24825;BME280;12910;57.690;11.974;2022-09-20T16:58:41;101306.78;;;12.63;100.00
24825;BME280;12910;57.690;11.974;2022-09-20T17:01:08;101319.69;;;12.66;100.00
24825;BME280;12910;57.690;11.974;2022-09-20T17:03:35;101306.78;;;12.63;100.00
24825;BME280;12910;57.690;11.974;2022-09-20T17:06:05;101307.47;;;12.54;100.00
24825;BME280;12910;57.690;11.974;2022-09-20T17:08:31;101319.41;;;12.51;100.00
24825;BME280;12910;57.690;11.974;2022-09-20T17:11:13;101321.69;;;12.37;100.00
24825;BME280;12910;57.690;11.974;2022-09-20T17:13:40;101320.88;;;12.39;100.00
24825;BME280;12910;57.690;11.974;2022-09-20T17:16:12;101325.97;;;12.36;100.00
24825;BME280;12910;57.690;11.974;2022-09-20T17:18:38;101321.41;;;12.23;100.00
24825;BME280;12910;57.690;11.974;2022-09-20T17:21:12;101301.56;;;12.15;100.00
24825;BME280;12910;57.690;11.974;2022-09-20T17:23:42;101331.72;;;12.24;100.00
24825;BME280;12910;57.690;11.974;2022-09-20T17:26:19;101337.78;;;12.28;100.00
24825;BME280;12910;57.690;11.974;2022-09-20T17:28:48;101327.28;;;12.15;100.00
24825;BME280;12910;57.690;11.974;2022-09-20T17:31:19;101325.53;;;12.14;100.00
24825;BME280;12910;57.690;11.974;2022-09-20T17:33:47;101330.53;;;12.08;100.00
24825;BME280;12910;57.690;11.974;2022-09-20T17:36:15;101329.69;;;12.08;100.00
24825;BME280;12910;57.690;11.974;2022-09-20T17:38:43;101342.53;;;12.09;100.00